sensor_id;sensor_type;location;lat;lon;timestamp;P1;durP1;ratioP1;P2;durP2;ratioP2
65759;SDS011;52496;51.082;5.066;2023-05-10T00:00:32;29.90;;;14.18;;
65759;SDS011;52496;51.082;5.066;2023-05-10T00:03:02;27.30;;;13.40;;
65759;SDS011;52496;51.082;5.066;2023-05-10T00:05:34;31.02;;;14.25;;
65759;SDS011;52496;51.082;5.066;2023-05-10T00:08:05;27.48;;;13.10;;
65759;SDS011;52496;51.082;5.066;2023-05-10T00:10:35;25.95;;;12.55;;
65759;SDS011;52496;51.082;5.066;2023-05-10T00:13:07;24.80;;;12.60;;
65759;SDS011;52496;51.082;5.066;2023-05-10T00:15:37;27.77;;;13.05;;
65759;SDS011;52496;51.082;5.066;2023-05-10T00:18:08;36.10;;;13.40;;
65759;SDS011;52496;51.082;5.066;2023-05-10T00:20:38;31.95;;;12.35;;
65759;SDS011;52496;51.082;5.066;2023-05-10T00:23:09;25.58;;;11.65;;
65759;SDS011;52496;51.082;5.066;2023-05-10T00:25:40;27.83;;;12.10;;
65759;SDS011;52496;51.082;5.066;2023-05-10T00:28:11;24.73;;;11.63;;
65759;SDS011;52496;51.082;5.066;2023-05-10T00:30:42;22.33;;;11.52;;
65759;SDS011;52496;51.082;5.066;2023-05-10T00:33:12;29.02;;;13.15;;
65759;SDS011;52496;51.082;5.066;2023-05-10T00:35:43;24.58;;;11.95;;
65759;SDS011;52496;51.082;5.066;2023-05-10T00:38:13;23.55;;;11.55;;
65759;SDS011;52496;51.082;5.066;2023-05-10T00:40:44;30.80;;;13.00;;
65759;SDS011;52496;51.082;5.066;2023-05-10T00:43:14;30.90;;;14.65;;
65759;SDS011;52496;51.082;5.066;2023-05-10T00:45:45;26.88;;;12.45;;
65759;SDS011;52496;51.082;5.066;2023-05-10T00:48:16;30.20;;;12.80;;
65759;SDS011;52496;51.082;5.066;2023-05-10T00:50:46;33.15;;;14.25;;
65759;SDS011;52496;51.082;5.066;2023-05-10T00:53:17;30.02;;;13.57;;
65759;SDS011;52496;51.082;5.066;2023-05-10T00:55:49;26.88;;;13.02;;
65759;SDS011;52496;51.082;5.066;2023-05-10T00:58:19;23.98;;;12.82;;
65759;SDS011;52496;51.082;5.066;2023-05-10T01:00:50;22.77;;;12.30;;
65759;SDS011;52496;51.082;5.066;2023-05-10T01:03:21;26.15;;;13.07;;
65759;SDS011;52496;51.082;5.066;2023-05-10T01:05:51;26.15;;;13.02;;
65759;SDS011;52496;51.082;5.066;2023-05-10T01:08:22;26.30;;;12.88;;
65759;SDS011;52496;51.082;5.066;2023-05-10T01:10:53;26.52;;;13.30;;
65759;SDS011;52496;51.082;5.066;2023-05-10T01:16:05;27.48;;;13.75;;
65759;SDS011;52496;51.082;5.066;2023-05-10T01:18:38;24.65;;;13.32;;
65759;SDS011;52496;51.082;5.066;2023-05-10T01:35:06;28.02;;;11.90;;
65759;SDS011;52496;51.082;5.066;2023-05-10T01:37:52;25.35;;;11.90;;
65759;SDS011;52496;51.082;5.066;2023-05-10T01:40:39;26.67;;;12.15;;
65759;SDS011;52496;51.082;5.066;2023-05-10T01:43:20;27.98;;;12.40;;
65759;SDS011;52496;51.082;5.066;2023-05-10T01:48:24;26.50;;;12.50;;
65759;SDS011;52496;51.082;5.066;2023-05-10T01:50:57;23.95;;;11.73;;
65759;SDS011;52496;51.082;5.066;2023-05-10T01:53:28;30.60;;;11.82;;
65759;SDS011;52496;51.082;5.066;2023-05-10T01:56:00;23.23;;;11.23;;
65759;SDS011;52496;51.082;5.066;2023-05-10T01:58:35;31.13;;;11.88;;
65759;SDS011;52496;51.082;5.066;2023-05-10T02:01:08;32.70;;;12.85;;
65759;SDS011;52496;51.082;5.066;2023-05-10T02:03:40;24.63;;;11.55;;
65759;SDS011;52496;51.082;5.066;2023-05-10T02:06:12;26.27;;;11.23;;
65759;SDS011;52496;51.082;5.066;2023-05-10T02:08:44;29.40;;;13.20;;
65759;SDS011;52496;51.082;5.066;2023-05-10T02:11:17;27.65;;;12.27;;
65759;SDS011;52496;51.082;5.066;2023-05-10T02:13:51;30.42;;;12.88;;
65759;SDS011;52496;51.082;5.066;2023-05-10T02:16:26;28.02;;;11.57;;
65759;SDS011;52496;51.082;5.066;2023-05-10T02:18:57;29.25;;;11.68;;
65759;SDS011;52496;51.082;5.066;2023-05-10T02:21:31;28.48;;;11.85;;
65759;SDS011;52496;51.082;5.066;2023-05-10T02:24:04;25.38;;;11.30;;
65759;SDS011;52496;51.082;5.066;2023-05-10T02:26:35;29.15;;;11.75;;
65759;SDS011;52496;51.082;5.066;2023-05-10T02:29:07;29.13;;;13.00;;
65759;SDS011;52496;51.082;5.066;2023-05-10T02:31:39;29.15;;;12.00;;
65759;SDS011;52496;51.082;5.066;2023-05-10T02:34:13;26.90;;;12.05;;
65759;SDS011;52496;51.082;5.066;2023-05-10T02:36:44;30.98;;;13.07;;
65759;SDS011;52496;51.082;5.066;2023-05-10T02:39:14;33.30;;;12.20;;
65759;SDS011;52496;51.082;5.066;2023-05-10T02:41:46;29.45;;;12.70;;
65759;SDS011;52496;51.082;5.066;2023-05-10T02:44:19;23.75;;;11.43;;
65759;SDS011;52496;51.082;5.066;2023-05-10T02:46:50;29.00;;;11.23;;
65759;SDS011;52496;51.082;5.066;2023-05-10T02:49:21;32.83;;;12.77;;
65759;SDS011;52496;51.082;5.066;2023-05-10T02:51:52;32.65;;;12.23;;
65759;SDS011;52496;51.082;5.066;2023-05-10T02:54:29;30.90;;;13.48;;
65759;SDS011;52496;51.082;5.066;2023-05-10T02:57:03;28.60;;;12.93;;
65759;SDS011;52496;51.082;5.066;2023-05-10T02:59:35;29.00;;;12.07;;
65759;SDS011;52496;51.082;5.066;2023-05-10T03:02:06;30.70;;;12.40;;
65759;SDS011;52496;51.082;5.066;2023-05-10T03:04:37;31.42;;;12.25;;
65759;SDS011;52496;51.082;5.066;2023-05-10T03:07:08;28.90;;;12.68;;
65759;SDS011;52496;51.082;5.066;2023-05-10T03:09:38;30.17;;;12.80;;
65759;SDS011;52496;51.082;5.066;2023-05-10T03:15:12;27.15;;;12.25;;
65759;SDS011;52496;51.082;5.066;2023-05-10T03:18:14;26.33;;;11.77;;
65759;SDS011;52496;51.082;5.066;2023-05-10T03:20:50;34.13;;;13.07;;
65759;SDS011;52496;51.082;5.066;2023-05-10T03:23:35;27.92;;;13.25;;
65759;SDS011;52496;51.082;5.066;2023-05-10T03:26:30;30.67;;;12.75;;
65759;SDS011;52496;51.082;5.066;2023-05-10T03:29:01;31.58;;;12.45;;
65759;SDS011;52496;51.082;5.066;2023-05-10T03:31:33;29.48;;;12.73;;
65759;SDS011;52496;51.082;5.066;2023-05-10T03:34:03;28.85;;;13.07;;
65759;SDS011;52496;51.082;5.066;2023-05-10T03:36:34;27.60;;;12.00;;
65759;SDS011;52496;51.082;5.066;2023-05-10T03:39:05;31.73;;;13.75;;
65759;SDS011;52496;51.082;5.066;2023-05-10T03:41:35;28.27;;;12.63;;
65759;SDS011;52496;51.082;5.066;2023-05-10T03:44:06;29.00;;;13.13;;
65759;SDS011;52496;51.082;5.066;2023-05-10T03:46:36;31.85;;;12.98;;
65759;SDS011;52496;51.082;5.066;2023-05-10T03:49:07;30.00;;;13.18;;
65759;SDS011;52496;51.082;5.066;2023-05-10T03:51:37;28.30;;;12.45;;
65759;SDS011;52496;51.082;5.066;2023-05-10T03:54:07;34.50;;;13.73;;
65759;SDS011;52496;51.082;5.066;2023-05-10T03:56:38;31.02;;;14.00;;
65759;SDS011;52496;51.082;5.066;2023-05-10T03:59:08;31.52;;;13.20;;
65759;SDS011;52496;51.082;5.066;2023-05-10T04:01:39;26.50;;;11.65;;
65759;SDS011;52496;51.082;5.066;2023-05-10T04:04:09;31.55;;;13.30;;
65759;SDS011;52496;51.082;5.066;2023-05-10T04:06:40;32.47;;;13.38;;
65759;SDS011;52496;51.082;5.066;2023-05-10T04:09:10;31.50;;;13.68;;
65759;SDS011;52496;51.082;5.066;2023-05-10T04:11:41;31.40;;;14.38;;
65759;SDS011;52496;51.082;5.066;2023-05-10T04:14:11;27.65;;;12.52;;
65759;SDS011;52496;51.082;5.066;2023-05-10T04:16:42;28.80;;;13.20;;
65759;SDS011;52496;51.082;5.066;2023-05-10T04:19:13;31.35;;;14.82;;
65759;SDS011;52496;51.082;5.066;2023-05-10T04:21:43;30.83;;;13.57;;
65759;SDS011;52496;51.082;5.066;2023-05-10T04:24:14;29.08;;;14.27;;
65759;SDS011;52496;51.082;5.066;2023-05-10T04:26:44;37.40;;;14.55;;
65759;SDS011;52496;51.082;5.066;2023-05-10T04:29:15;35.83;;;15.35;;
65759;SDS011;52496;51.082;5.066;2023-05-10T04:31:45;35.60;;;17.20;;
65759;SDS011;52496;51.082;5.066;2023-05-10T04:34:16;30.58;;;14.30;;
65759;SDS011;52496;51.082;5.066;2023-05-10T04:36:46;39.88;;;15.52;;
65759;SDS011;52496;51.082;5.066;2023-05-10T04:39:17;38.03;;;16.85;;
65759;SDS011;52496;51.082;5.066;2023-05-10T04:41:48;38.80;;;17.00;;
65759;SDS011;52496;51.082;5.066;2023-05-10T04:44:18;49.40;;;18.30;;
65759;SDS011;52496;51.082;5.066;2023-05-10T04:46:49;70.22;;;22.20;;
65759;SDS011;52496;51.082;5.066;2023-05-10T04:49:19;72.70;;;23.58;;
65759;SDS011;52496;51.082;5.066;2023-05-10T04:51:50;64.97;;;23.67;;
65759;SDS011;52496;51.082;5.066;2023-05-10T04:54:21;76.32;;;26.55;;
65759;SDS011;52496;51.082;5.066;2023-05-10T04:56:51;80.85;;;27.70;;
65759;SDS011;52496;51.082;5.066;2023-05-10T04:59:22;70.88;;;24.65;;
65759;SDS011;52496;51.082;5.066;2023-05-10T05:01:52;75.38;;;24.20;;
65759;SDS011;52496;51.082;5.066;2023-05-10T05:04:23;67.60;;;24.55;;
65759;SDS011;52496;51.082;5.066;2023-05-10T05:06:55;65.90;;;24.65;;
65759;SDS011;52496;51.082;5.066;2023-05-10T05:09:25;62.65;;;24.55;;
65759;SDS011;52496;51.082;5.066;2023-05-10T05:11:55;62.50;;;21.38;;
65759;SDS011;52496;51.082;5.066;2023-05-10T05:14:26;64.03;;;23.75;;
65759;SDS011;52496;51.082;5.066;2023-05-10T05:16:58;56.95;;;20.83;;
65759;SDS011;52496;51.082;5.066;2023-05-10T05:19:28;57.00;;;20.08;;
65759;SDS011;52496;51.082;5.066;2023-05-10T05:22:01;48.50;;;20.25;;
65759;SDS011;52496;51.082;5.066;2023-05-10T05:24:34;50.40;;;20.95;;
65759;SDS011;52496;51.082;5.066;2023-05-10T05:27:06;44.65;;;18.42;;
65759;SDS011;52496;51.082;5.066;2023-05-10T05:29:36;45.70;;;17.75;;
65759;SDS011;52496;51.082;5.066;2023-05-10T05:32:07;45.22;;;18.73;;
65759;SDS011;52496;51.082;5.066;2023-05-10T05:34:38;48.70;;;19.30;;
65759;SDS011;52496;51.082;5.066;2023-05-10T05:37:12;40.65;;;17.13;;
65759;SDS011;52496;51.082;5.066;2023-05-10T05:39:46;39.67;;;18.17;;
65759;SDS011;52496;51.082;5.066;2023-05-10T05:42:17;47.20;;;18.20;;
65759;SDS011;52496;51.082;5.066;2023-05-10T05:44:48;41.55;;;17.52;;
65759;SDS011;52496;51.082;5.066;2023-05-10T05:47:19;38.75;;;16.05;;
65759;SDS011;52496;51.082;5.066;2023-05-10T05:49:49;39.70;;;15.45;;
65759;SDS011;52496;51.082;5.066;2023-05-10T05:52:20;32.33;;;15.38;;
65759;SDS011;52496;51.082;5.066;2023-05-10T05:54:51;37.35;;;16.63;;
65759;SDS011;52496;51.082;5.066;2023-05-10T05:57:21;37.75;;;16.23;;
65759;SDS011;52496;51.082;5.066;2023-05-10T05:59:52;41.05;;;16.38;;
65759;SDS011;52496;51.082;5.066;2023-05-10T06:02:23;38.88;;;17.17;;
65759;SDS011;52496;51.082;5.066;2023-05-10T06:04:53;39.53;;;16.90;;
65759;SDS011;52496;51.082;5.066;2023-05-10T06:07:24;37.55;;;17.08;;
65759;SDS011;52496;51.082;5.066;2023-05-10T06:09:55;38.17;;;15.63;;
65759;SDS011;52496;51.082;5.066;2023-05-10T06:12:25;40.50;;;16.58;;
65759;SDS011;52496;51.082;5.066;2023-05-10T06:14:56;39.17;;;17.88;;
65759;SDS011;52496;51.082;5.066;2023-05-10T06:17:26;45.22;;;16.83;;
65759;SDS011;52496;51.082;5.066;2023-05-10T06:19:57;47.55;;;18.75;;
65759;SDS011;52496;51.082;5.066;2023-05-10T06:22:28;39.25;;;17.17;;
65759;SDS011;52496;51.082;5.066;2023-05-10T06:24:58;38.72;;;17.48;;
65759;SDS011;52496;51.082;5.066;2023-05-10T06:27:29;38.55;;;17.48;;
65759;SDS011;52496;51.082;5.066;2023-05-10T06:30:00;43.42;;;18.73;;
65759;SDS011;52496;51.082;5.066;2023-05-10T06:32:30;44.35;;;17.58;;
65759;SDS011;52496;51.082;5.066;2023-05-10T06:35:01;38.70;;;17.35;;
65759;SDS011;52496;51.082;5.066;2023-05-10T06:37:31;39.67;;;17.90;;
65759;SDS011;52496;51.082;5.066;2023-05-10T06:40:02;37.50;;;17.25;;
65759;SDS011;52496;51.082;5.066;2023-05-10T06:42:33;42.25;;;18.58;;
65759;SDS011;52496;51.082;5.066;2023-05-10T06:45:04;38.95;;;18.50;;
65759;SDS011;52496;51.082;5.066;2023-05-10T06:47:35;40.28;;;17.95;;
65759;SDS011;52496;51.082;5.066;2023-05-10T06:50:07;38.75;;;16.90;;
65759;SDS011;52496;51.082;5.066;2023-05-10T06:52:38;36.60;;;16.40;;
65759;SDS011;52496;51.082;5.066;2023-05-10T06:55:09;41.88;;;17.85;;
65759;SDS011;52496;51.082;5.066;2023-05-10T06:57:40;38.78;;;18.27;;
65759;SDS011;52496;51.082;5.066;2023-05-10T07:00:11;42.53;;;17.38;;
65759;SDS011;52496;51.082;5.066;2023-05-10T07:02:42;40.10;;;17.63;;
65759;SDS011;52496;51.082;5.066;2023-05-10T07:05:12;38.92;;;18.25;;
65759;SDS011;52496;51.082;5.066;2023-05-10T07:07:44;42.60;;;19.80;;
65759;SDS011;52496;51.082;5.066;2023-05-10T07:10:14;41.58;;;18.17;;
65759;SDS011;52496;51.082;5.066;2023-05-10T07:12:45;34.67;;;16.17;;
65759;SDS011;52496;51.082;5.066;2023-05-10T07:15:15;40.33;;;17.02;;
65759;SDS011;52496;51.082;5.066;2023-05-10T07:17:45;40.15;;;18.05;;
65759;SDS011;52496;51.082;5.066;2023-05-10T07:20:16;40.67;;;18.58;;
65759;SDS011;52496;51.082;5.066;2023-05-10T07:22:46;42.00;;;18.27;;
65759;SDS011;52496;51.082;5.066;2023-05-10T07:25:17;38.72;;;19.05;;
65759;SDS011;52496;51.082;5.066;2023-05-10T07:27:48;43.15;;;18.85;;
65759;SDS011;52496;51.082;5.066;2023-05-10T07:30:18;46.35;;;20.05;;
65759;SDS011;52496;51.082;5.066;2023-05-10T07:32:49;45.08;;;21.08;;
65759;SDS011;52496;51.082;5.066;2023-05-10T07:35:20;44.25;;;19.42;;
65759;SDS011;52496;51.082;5.066;2023-05-10T07:37:50;42.20;;;18.88;;
65759;SDS011;52496;51.082;5.066;2023-05-10T07:40:20;40.13;;;19.63;;
65759;SDS011;52496;51.082;5.066;2023-05-10T07:42:51;38.38;;;17.70;;
65759;SDS011;52496;51.082;5.066;2023-05-10T07:45:22;44.55;;;20.40;;
65759;SDS011;52496;51.082;5.066;2023-05-10T07:47:53;36.80;;;18.25;;
65759;SDS011;52496;51.082;5.066;2023-05-10T07:50:23;40.03;;;17.90;;
65759;SDS011;52496;51.082;5.066;2023-05-10T07:52:54;31.67;;;16.50;;
65759;SDS011;52496;51.082;5.066;2023-05-10T07:55:24;35.33;;;17.15;;
65759;SDS011;52496;51.082;5.066;2023-05-10T07:57:55;34.55;;;17.35;;
65759;SDS011;52496;51.082;5.066;2023-05-10T08:00:26;33.28;;;16.80;;
65759;SDS011;52496;51.082;5.066;2023-05-10T08:02:56;32.10;;;15.38;;
65759;SDS011;52496;51.082;5.066;2023-05-10T08:05:28;34.35;;;16.35;;
65759;SDS011;52496;51.082;5.066;2023-05-10T08:07:58;33.20;;;16.63;;
65759;SDS011;52496;51.082;5.066;2023-05-10T08:10:29;30.73;;;15.45;;
65759;SDS011;52496;51.082;5.066;2023-05-10T08:13:00;33.58;;;16.42;;
65759;SDS011;52496;51.082;5.066;2023-05-10T08:15:30;33.58;;;14.82;;
65759;SDS011;52496;51.082;5.066;2023-05-10T08:18:01;31.23;;;14.63;;
65759;SDS011;52496;51.082;5.066;2023-05-10T08:20:31;33.10;;;16.85;;
65759;SDS011;52496;51.082;5.066;2023-05-10T08:23:02;31.80;;;15.30;;
65759;SDS011;52496;51.082;5.066;2023-05-10T08:25:32;29.88;;;15.25;;
65759;SDS011;52496;51.082;5.066;2023-05-10T08:28:03;30.60;;;13.98;;
65759;SDS011;52496;51.082;5.066;2023-05-10T08:30:34;29.67;;;15.30;;
65759;SDS011;52496;51.082;5.066;2023-05-10T08:33:04;33.22;;;14.10;;
65759;SDS011;52496;51.082;5.066;2023-05-10T08:35:35;28.98;;;15.18;;
65759;SDS011;52496;51.082;5.066;2023-05-10T08:38:05;25.65;;;13.23;;
65759;SDS011;52496;51.082;5.066;2023-05-10T08:40:42;27.27;;;13.85;;
65759;SDS011;52496;51.082;5.066;2023-05-10T08:43:13;26.63;;;13.20;;
65759;SDS011;52496;51.082;5.066;2023-05-10T08:45:47;23.90;;;13.77;;
65759;SDS011;52496;51.082;5.066;2023-05-10T08:48:20;23.42;;;13.05;;
65759;SDS011;52496;51.082;5.066;2023-05-10T08:50:53;21.30;;;11.98;;
65759;SDS011;52496;51.082;5.066;2023-05-10T08:53:28;22.25;;;12.77;;
65759;SDS011;52496;51.082;5.066;2023-05-10T08:55:59;22.90;;;12.38;;
65759;SDS011;52496;51.082;5.066;2023-05-10T08:58:31;22.83;;;13.10;;
65759;SDS011;52496;51.082;5.066;2023-05-10T09:01:02;25.27;;;13.70;;
65759;SDS011;52496;51.082;5.066;2023-05-10T09:03:33;23.30;;;13.20;;
65759;SDS011;52496;51.082;5.066;2023-05-10T09:06:03;22.05;;;12.45;;
65759;SDS011;52496;51.082;5.066;2023-05-10T09:08:35;21.02;;;12.63;;
65759;SDS011;52496;51.082;5.066;2023-05-10T09:11:07;22.58;;;12.65;;
65759;SDS011;52496;51.082;5.066;2023-05-10T09:13:39;25.70;;;13.35;;
65759;SDS011;52496;51.082;5.066;2023-05-10T09:16:10;27.17;;;13.65;;
65759;SDS011;52496;51.082;5.066;2023-05-10T09:18:40;22.80;;;12.90;;
65759;SDS011;52496;51.082;5.066;2023-05-10T09:21:11;25.00;;;12.77;;
65759;SDS011;52496;51.082;5.066;2023-05-10T09:23:42;17.58;;;11.27;;
65759;SDS011;52496;51.082;5.066;2023-05-10T09:26:14;18.55;;;11.02;;
65759;SDS011;52496;51.082;5.066;2023-05-10T09:28:55;16.27;;;9.73;;
65759;SDS011;52496;51.082;5.066;2023-05-10T09:31:43;21.13;;;10.90;;
65759;SDS011;52496;51.082;5.066;2023-05-10T09:34:18;18.10;;;10.25;;
65759;SDS011;52496;51.082;5.066;2023-05-10T09:36:56;16.90;;;9.18;;
65759;SDS011;52496;51.082;5.066;2023-05-10T09:39:34;18.38;;;9.60;;
65759;SDS011;52496;51.082;5.066;2023-05-10T09:42:08;18.13;;;10.00;;
65759;SDS011;52496;51.082;5.066;2023-05-10T09:44:39;19.50;;;9.55;;
65759;SDS011;52496;51.082;5.066;2023-05-10T09:47:10;16.60;;;8.55;;
65759;SDS011;52496;51.082;5.066;2023-05-10T09:49:50;19.92;;;9.75;;
65759;SDS011;52496;51.082;5.066;2023-05-10T09:52:22;17.05;;;8.50;;
65759;SDS011;52496;51.082;5.066;2023-05-10T09:54:53;18.77;;;9.82;;
65759;SDS011;52496;51.082;5.066;2023-05-10T09:57:24;17.50;;;8.60;;
65759;SDS011;52496;51.082;5.066;2023-05-10T09:59:55;13.85;;;8.30;;
65759;SDS011;52496;51.082;5.066;2023-05-10T10:02:30;18.38;;;9.98;;
65759;SDS011;52496;51.082;5.066;2023-05-10T10:05:01;20.58;;;10.27;;
65759;SDS011;52496;51.082;5.066;2023-05-10T10:07:35;16.92;;;10.10;;
65759;SDS011;52496;51.082;5.066;2023-05-10T10:10:09;16.80;;;9.75;;
65759;SDS011;52496;51.082;5.066;2023-05-10T10:12:42;23.40;;;10.13;;
65759;SDS011;52496;51.082;5.066;2023-05-10T10:15:14;19.48;;;9.98;;
65759;SDS011;52496;51.082;5.066;2023-05-10T10:17:45;18.15;;;9.90;;
65759;SDS011;52496;51.082;5.066;2023-05-10T10:20:17;19.98;;;9.60;;
65759;SDS011;52496;51.082;5.066;2023-05-10T10:22:48;17.67;;;9.52;;
65759;SDS011;52496;51.082;5.066;2023-05-10T10:25:19;18.33;;;9.50;;
65759;SDS011;52496;51.082;5.066;2023-05-10T10:30:39;15.20;;;8.63;;
65759;SDS011;52496;51.082;5.066;2023-05-10T10:36:00;17.88;;;8.43;;
65759;SDS011;52496;51.082;5.066;2023-05-10T10:39:14;18.80;;;8.30;;
65759;SDS011;52496;51.082;5.066;2023-05-10T10:41:39;15.85;;;7.93;;
65759;SDS011;52496;51.082;5.066;2023-05-10T10:52:30;13.05;;;7.05;;
65759;SDS011;52496;51.082;5.066;2023-05-10T10:55:13;13.90;;;7.72;;
65759;SDS011;52496;51.082;5.066;2023-05-10T10:57:55;14.20;;;7.63;;
65759;SDS011;52496;51.082;5.066;2023-05-10T11:00:35;12.90;;;7.97;;
65759;SDS011;52496;51.082;5.066;2023-05-10T11:03:08;13.85;;;7.68;;
65759;SDS011;52496;51.082;5.066;2023-05-10T11:05:45;14.38;;;7.97;;
65759;SDS011;52496;51.082;5.066;2023-05-10T11:08:27;13.02;;;7.60;;
65759;SDS011;52496;51.082;5.066;2023-05-10T11:13:30;12.80;;;7.30;;
65759;SDS011;52496;51.082;5.066;2023-05-10T11:16:11;11.43;;;6.75;;
65759;SDS011;52496;51.082;5.066;2023-05-10T11:18:57;14.48;;;7.15;;
65759;SDS011;52496;51.082;5.066;2023-05-10T11:21:33;12.13;;;6.55;;
65759;SDS011;52496;51.082;5.066;2023-05-10T11:24:15;13.00;;;6.97;;
65759;SDS011;52496;51.082;5.066;2023-05-10T11:26:49;13.35;;;6.55;;
65759;SDS011;52496;51.082;5.066;2023-05-10T11:29:20;10.98;;;6.93;;
65759;SDS011;52496;51.082;5.066;2023-05-10T11:31:50;22.65;;;7.57;;
65759;SDS011;52496;51.082;5.066;2023-05-10T11:34:25;11.43;;;6.70;;
65759;SDS011;52496;51.082;5.066;2023-05-10T11:36:57;11.30;;;6.60;;
65759;SDS011;52496;51.082;5.066;2023-05-10T11:39:28;12.95;;;6.60;;
65759;SDS011;52496;51.082;5.066;2023-05-10T11:42:00;13.57;;;6.57;;
65759;SDS011;52496;51.082;5.066;2023-05-10T11:44:31;11.73;;;6.38;;
65759;SDS011;52496;51.082;5.066;2023-05-10T11:47:02;11.38;;;5.65;;
65759;SDS011;52496;51.082;5.066;2023-05-10T11:49:33;10.25;;;6.30;;
65759;SDS011;52496;51.082;5.066;2023-05-10T11:52:06;10.50;;;6.20;;
65759;SDS011;52496;51.082;5.066;2023-05-10T11:54:42;9.15;;;5.90;;
65759;SDS011;52496;51.082;5.066;2023-05-10T11:57:15;9.82;;;5.72;;
65759;SDS011;52496;51.082;5.066;2023-05-10T11:59:46;8.50;;;5.65;;
65759;SDS011;52496;51.082;5.066;2023-05-10T12:02:17;11.70;;;4.90;;
65759;SDS011;52496;51.082;5.066;2023-05-10T12:04:47;12.00;;;5.57;;
65759;SDS011;52496;51.082;5.066;2023-05-10T12:07:18;11.35;;;5.25;;
65759;SDS011;52496;51.082;5.066;2023-05-10T12:10:08;8.43;;;5.32;;
65759;SDS011;52496;51.082;5.066;2023-05-10T12:12:44;11.40;;;5.68;;
65759;SDS011;52496;51.082;5.066;2023-05-10T12:15:22;7.95;;;4.70;;
65759;SDS011;52496;51.082;5.066;2023-05-10T12:17:54;9.50;;;4.95;;
65759;SDS011;52496;51.082;5.066;2023-05-10T12:20:27;13.73;;;5.10;;
65759;SDS011;52496;51.082;5.066;2023-05-10T12:22:58;8.45;;;4.50;;
65759;SDS011;52496;51.082;5.066;2023-05-10T12:25:35;7.63;;;4.20;;
65759;SDS011;52496;51.082;5.066;2023-05-10T12:28:08;11.32;;;5.18;;
65759;SDS011;52496;51.082;5.066;2023-05-10T12:30:39;8.60;;;4.97;;
65759;SDS011;52496;51.082;5.066;2023-05-10T12:33:13;9.63;;;4.88;;
65759;SDS011;52496;51.082;5.066;2023-05-10T12:35:48;9.75;;;5.45;;
65759;SDS011;52496;51.082;5.066;2023-05-10T12:38:37;10.38;;;4.95;;
65759;SDS011;52496;51.082;5.066;2023-05-10T12:41:14;10.77;;;4.65;;
65759;SDS011;52496;51.082;5.066;2023-05-10T12:43:46;7.38;;;4.38;;
65759;SDS011;52496;51.082;5.066;2023-05-10T12:46:16;7.60;;;3.78;;
65759;SDS011;52496;51.082;5.066;2023-05-10T12:48:47;7.63;;;4.82;;
65759;SDS011;52496;51.082;5.066;2023-05-10T12:51:24;7.32;;;4.10;;
65759;SDS011;52496;51.082;5.066;2023-05-10T12:53:55;7.10;;;3.80;;
65759;SDS011;52496;51.082;5.066;2023-05-10T12:56:25;7.50;;;3.30;;
65759;SDS011;52496;51.082;5.066;2023-05-10T12:58:56;6.25;;;3.28;;
65759;SDS011;52496;51.082;5.066;2023-05-10T13:01:26;7.13;;;3.47;;
65759;SDS011;52496;51.082;5.066;2023-05-10T13:03:58;5.85;;;3.20;;
65759;SDS011;52496;51.082;5.066;2023-05-10T13:06:30;9.13;;;4.20;;
65759;SDS011;52496;51.082;5.066;2023-05-10T13:09:01;6.57;;;3.53;;
65759;SDS011;52496;51.082;5.066;2023-05-10T13:11:32;6.53;;;3.92;;
65759;SDS011;52496;51.082;5.066;2023-05-10T13:14:03;6.78;;;3.45;;
65759;SDS011;52496;51.082;5.066;2023-05-10T13:16:33;6.07;;;3.60;;
65759;SDS011;52496;51.082;5.066;2023-05-10T13:19:04;6.90;;;3.60;;
65759;SDS011;52496;51.082;5.066;2023-05-10T13:21:35;7.15;;;4.05;;
65759;SDS011;52496;51.082;5.066;2023-05-10T13:24:06;6.43;;;3.95;;
65759;SDS011;52496;51.082;5.066;2023-05-10T13:26:37;7.10;;;3.70;;
65759;SDS011;52496;51.082;5.066;2023-05-10T13:29:08;6.43;;;3.67;;
65759;SDS011;52496;51.082;5.066;2023-05-10T13:31:39;7.43;;;4.00;;
65759;SDS011;52496;51.082;5.066;2023-05-10T13:34:10;6.38;;;3.72;;
65759;SDS011;52496;51.082;5.066;2023-05-10T13:36:40;8.85;;;4.28;;
65759;SDS011;52496;51.082;5.066;2023-05-10T13:39:11;8.05;;;4.10;;
65759;SDS011;52496;51.082;5.066;2023-05-10T13:41:42;9.07;;;4.38;;
65759;SDS011;52496;51.082;5.066;2023-05-10T13:44:13;8.43;;;4.32;;
65759;SDS011;52496;51.082;5.066;2023-05-10T13:46:44;8.48;;;4.00;;
65759;SDS011;52496;51.082;5.066;2023-05-10T13:49:15;7.70;;;4.00;;
65759;SDS011;52496;51.082;5.066;2023-05-10T13:51:45;8.43;;;3.92;;
65759;SDS011;52496;51.082;5.066;2023-05-10T13:54:16;7.53;;;3.85;;
65759;SDS011;52496;51.082;5.066;2023-05-10T13:56:49;7.63;;;4.22;;
65759;SDS011;52496;51.082;5.066;2023-05-10T13:59:20;8.48;;;4.60;;
65759;SDS011;52496;51.082;5.066;2023-05-10T14:01:50;11.25;;;4.65;;
65759;SDS011;52496;51.082;5.066;2023-05-10T14:04:21;6.80;;;3.85;;
65759;SDS011;52496;51.082;5.066;2023-05-10T14:06:51;7.10;;;4.07;;
65759;SDS011;52496;51.082;5.066;2023-05-10T14:09:22;7.43;;;4.15;;
65759;SDS011;52496;51.082;5.066;2023-05-10T14:11:53;8.77;;;4.47;;
65759;SDS011;52496;51.082;5.066;2023-05-10T14:14:24;7.05;;;3.95;;
65759;SDS011;52496;51.082;5.066;2023-05-10T14:16:54;8.82;;;4.28;;
65759;SDS011;52496;51.082;5.066;2023-05-10T14:19:25;9.85;;;4.40;;
65759;SDS011;52496;51.082;5.066;2023-05-10T14:21:57;9.25;;;4.18;;
65759;SDS011;52496;51.082;5.066;2023-05-10T14:24:27;6.55;;;3.80;;
65759;SDS011;52496;51.082;5.066;2023-05-10T14:26:58;7.82;;;3.95;;
65759;SDS011;52496;51.082;5.066;2023-05-10T14:29:28;7.25;;;4.32;;
65759;SDS011;52496;51.082;5.066;2023-05-10T14:31:59;7.97;;;4.82;;
65759;SDS011;52496;51.082;5.066;2023-05-10T14:34:30;7.80;;;4.13;;
65759;SDS011;52496;51.082;5.066;2023-05-10T14:37:00;6.97;;;4.25;;
65759;SDS011;52496;51.082;5.066;2023-05-10T14:39:31;7.80;;;4.32;;
65759;SDS011;52496;51.082;5.066;2023-05-10T14:42:03;10.48;;;4.88;;
65759;SDS011;52496;51.082;5.066;2023-05-10T14:44:33;10.70;;;5.30;;
65759;SDS011;52496;51.082;5.066;2023-05-10T14:47:04;6.03;;;3.78;;
65759;SDS011;52496;51.082;5.066;2023-05-10T14:49:35;7.88;;;4.80;;
65759;SDS011;52496;51.082;5.066;2023-05-10T14:52:06;9.45;;;4.72;;
65759;SDS011;52496;51.082;5.066;2023-05-10T14:54:36;8.07;;;4.35;;
65759;SDS011;52496;51.082;5.066;2023-05-10T14:57:07;6.82;;;4.38;;
65759;SDS011;52496;51.082;5.066;2023-05-10T14:59:38;10.80;;;5.03;;
65759;SDS011;52496;51.082;5.066;2023-05-10T15:02:08;11.05;;;4.60;;
65759;SDS011;52496;51.082;5.066;2023-05-10T15:04:40;9.50;;;4.40;;
65759;SDS011;52496;51.082;5.066;2023-05-10T15:07:10;10.00;;;4.28;;
65759;SDS011;52496;51.082;5.066;2023-05-10T15:09:44;7.32;;;4.28;;
65759;SDS011;52496;51.082;5.066;2023-05-10T15:12:15;7.65;;;4.65;;
65759;SDS011;52496;51.082;5.066;2023-05-10T15:14:46;9.35;;;4.82;;
65759;SDS011;52496;51.082;5.066;2023-05-10T15:17:16;9.27;;;5.13;;
65759;SDS011;52496;51.082;5.066;2023-05-10T15:19:47;10.50;;;4.65;;
65759;SDS011;52496;51.082;5.066;2023-05-10T15:22:19;8.35;;;4.50;;
65759;SDS011;52496;51.082;5.066;2023-05-10T15:24:49;8.75;;;4.60;;
65759;SDS011;52496;51.082;5.066;2023-05-10T15:27:20;7.22;;;4.40;;
65759;SDS011;52496;51.082;5.066;2023-05-10T15:29:51;9.15;;;4.88;;
65759;SDS011;52496;51.082;5.066;2023-05-10T15:32:21;9.60;;;5.32;;
65759;SDS011;52496;51.082;5.066;2023-05-10T15:34:52;11.15;;;6.25;;